KMLJ/MLJ METAR and TAF weather

Enter ICAO airport designator
Station Type Date Time Source
KMLJ METAR 2018/12/18 18:55 UTC NOAA

KMLJ 181855Z AUTO 11005KT 10SM CLR 17/00 A3005 RMK AO2


Station Type Date Time Source
KMLJ Decoded METAR 2018/12/18 18:55 UTC NOAA

Milledgeville, Baldwin County Airport, GA, United States (KMLJ) 33-09-15N 083-14-26W
Dec 18, 2018 - 01:55 PM EST / 2018.12.18 1855 UTC
Wind: from the ESE (110 degrees) at 6 MPH (5 KT):0
Visibility: 10 mile(s):0
Sky conditions: clear
Temperature: 62 F (17 C)
Dew Point: 32 F (0 C)
Relative Humidity: 31%
Pressure (altimeter): 30.05 in. Hg (1017 hPa)
ob: KMLJ 181855Z AUTO 11005KT 10SM CLR 17/00 A3005 RMK AO2
cycle: 19

Station Type Date Time Source
KMLJ TAF UTC NOAA

Error!


Example: see airport list